Eglon, West Virginia
Current Conditions -  °F | °C
As of 3:40 AM on Sunday 23 Nov 2014 (Local Time) from K2G4 Reporting Station
Scattered Clouds Scattered Clouds  
Wind Chill: 39°   Ceiling: Unl
Heat Index: 45°   Visibility: 10mi
Dew Point: 12°   Wind: 12mph
Humidity: 27%   Direction: 220°SW
Pressure: 30.13"   Gusts: 16mph
Location:  39.3°N, 79.52°W
Report Text: K2G4 230840Z AUTO 22010G14KT 10SM SCT049 SCT075 SCT085 07/M11 A3013 RMK AO1
Loading
Personal Weather Stations






























Interactive Weather Map New forecast layout! Learn more

10-Day Weather Forecast

Advertisements
Track Severe Weather on mobile